createdAt,value
2018-10-11T00:01:56.274Z,99808.63
2018-10-11T00:04:26.536Z,99817.17
2018-10-11T00:06:56.817Z,99813.56
2018-10-11T00:09:27.384Z,99812.41
2018-10-11T00:11:57.918Z,99818.62
2018-10-11T00:14:28.432Z,99815.55
2018-10-11T00:16:58.980Z,99810.16
2018-10-11T00:19:29.506Z,99813.39
2018-10-11T00:22:00.321Z,99816.80
2018-10-11T00:24:30.671Z,99820.09
2018-10-11T00:27:01.529Z,99811.84
2018-10-11T00:29:32.066Z,99815.84
2018-10-11T00:32:02.617Z,99813.19
2018-10-11T00:34:32.893Z,99809.84
2018-10-11T00:37:03.803Z,99806.82
2018-10-11T00:39:34.757Z,99793.12
2018-10-11T00:42:05.303Z,99785.89
2018-10-11T00:44:35.884Z,99786.17
2018-10-11T00:47:06.770Z,99731.23
2018-10-11T00:49:37.399Z,99792.27
2018-10-11T00:52:08.163Z,99795.61
2018-10-11T00:54:38.675Z,99805.59
2018-10-11T00:57:09.224Z,99802.17
2018-10-11T00:59:39.775Z,99789.76
2018-10-11T01:02:10.352Z,99779.30
2018-10-11T01:04:40.736Z,99783.62
2018-10-11T01:07:10.969Z,99785.06
2018-10-11T01:09:41.274Z,99790.09
2018-10-11T01:12:11.523Z,99794.56
2018-10-11T01:14:41.780Z,99792.16
2018-10-11T01:17:12.036Z,99779.39
2018-10-11T01:19:42.330Z,99783.38
2018-10-11T01:22:12.598Z,99791.50
2018-10-11T01:24:43.158Z,99789.89
2018-10-11T01:27:13.710Z,99791.98
2018-10-11T01:29:44.357Z,99788.37
2018-10-11T01:32:15.038Z,99788.09
2018-10-11T01:34:45.730Z,99792.92
2018-10-11T01:37:16.265Z,99787.83
2018-10-11T01:39:47.261Z,99790.34
2018-10-11T01:42:17.562Z,99780.81
2018-10-11T01:44:48.134Z,99783.84
2018-10-11T01:47:18.706Z,99788.00
2018-10-11T01:49:49.324Z,99792.05
2018-10-11T01:52:19.887Z,99790.30
2018-10-11T01:54:50.450Z,99790.14
2018-10-11T01:57:21.009Z,99787.70
2018-10-11T01:59:51.355Z,99793.01
2018-10-11T02:02:21.892Z,99786.13
2018-10-11T02:04:52.141Z,99789.13
2018-10-11T02:07:22.408Z,99790.52
2018-10-11T02:09:52.968Z,99795.89
2018-10-11T02:12:23.526Z,99795.31
2018-10-11T02:14:54.153Z,99789.27
2018-10-11T02:17:25.665Z,99788.91
2018-10-11T02:19:56.318Z,99793.19
2018-10-11T02:22:31.625Z,99797.44
2018-10-11T02:25:02.186Z,99781.80
2018-10-11T02:27:32.448Z,99784.61
2018-10-11T02:30:02.969Z,99786.77
2018-10-11T02:32:33.569Z,99783.62
2018-10-11T02:35:04.144Z,99780.65
2018-10-11T02:37:34.394Z,99784.78
2018-10-11T02:40:05.045Z,99776.80
2018-10-11T02:42:35.432Z,99776.36
2018-10-11T02:45:06.196Z,99780.22
2018-10-11T02:47:36.798Z,99778.80
2018-10-11T02:50:07.763Z,99770.23
2018-10-11T02:52:38.276Z,99778.38
2018-10-11T02:55:08.834Z,99784.48
2018-10-11T02:57:50.396Z,99782.79
2018-10-11T03:00:21.302Z,99780.48
2018-10-11T03:02:51.623Z,99774.02
2018-10-11T03:05:21.942Z,99773.46
2018-10-11T03:07:52.510Z,99765.62
2018-10-11T03:10:23.266Z,99762.28
2018-10-11T03:12:53.820Z,99761.65
2018-10-11T03:15:24.499Z,99755.82
2018-10-11T03:17:55.119Z,99758.91
2018-10-11T03:20:25.409Z,99764.99
2018-10-11T03:22:55.960Z,99758.22
2018-10-11T03:25:26.308Z,99758.92
2018-10-11T03:27:56.860Z,99755.70
2018-10-11T03:30:27.415Z,99760.58
2018-10-11T03:32:57.953Z,99754.05
2018-10-11T03:35:28.490Z,99748.92
2018-10-11T03:37:59.073Z,99753.06
2018-10-11T03:40:29.669Z,99755.32
2018-10-11T03:43:00.285Z,99738.27
2018-10-11T03:45:30.856Z,99745.41
2018-10-11T03:48:01.117Z,99746.77
2018-10-11T03:50:32.354Z,99736.83
2018-10-11T03:53:02.889Z,99739.81
2018-10-11T03:55:33.529Z,99737.33
2018-10-11T03:58:04.040Z,99744.13
2018-10-11T04:00:36.872Z,99743.09
2018-10-11T04:03:08.080Z,99744.87
2018-10-11T04:05:38.412Z,99744.91
2018-10-11T04:08:08.829Z,99746.67
2018-10-11T04:10:39.434Z,99751.76
2018-10-11T04:13:14.208Z,99745.88
2018-10-11T04:15:44.813Z,99749.80
2018-10-11T04:18:15.224Z,99751.22
2018-10-11T04:20:45.481Z,99761.68
2018-10-11T04:23:20.208Z,99759.70
2018-10-11T04:25:50.745Z,99760.17
2018-10-11T04:28:20.976Z,99759.45
2018-10-11T04:30:52.109Z,99759.39
2018-10-11T04:33:22.640Z,99758.52
2018-10-11T04:35:54.451Z,99759.07
2018-10-11T04:38:25.628Z,99752.47
2018-10-11T04:40:57.784Z,99754.55
2018-10-11T04:43:30.828Z,99747.17
2018-10-11T04:46:03.097Z,99751.69
2018-10-11T04:48:34.325Z,99743.88
2018-10-11T04:51:05.253Z,99748.48
2018-10-11T04:53:35.557Z,99749.36
2018-10-11T04:56:06.240Z,99756.67
2018-10-11T04:58:36.765Z,99757.05
2018-10-11T05:01:07.748Z,99755.86
2018-10-11T05:03:38.308Z,99760.60
2018-10-11T05:06:08.576Z,99757.82
2018-10-11T05:08:39.164Z,99764.05
2018-10-11T05:11:10.909Z,99765.40
2018-10-11T05:13:45.229Z,99722.27
2018-10-11T05:16:16.624Z,99763.68
2018-10-11T05:18:49.548Z,99767.77
2018-10-11T05:21:20.337Z,99772.44
2018-10-11T05:23:51.137Z,99775.16
2018-10-11T05:26:21.435Z,99771.52
2018-10-11T05:28:52.117Z,99775.72
2018-10-11T05:31:22.724Z,99774.45
2018-10-11T05:33:54.023Z,99779.48
2018-10-11T05:36:24.571Z,99783.75
2018-10-11T05:38:54.826Z,99790.41
2018-10-11T05:41:31.937Z,99790.98
2018-10-11T05:44:18.281Z,99797.40
2018-10-11T05:46:49.119Z,99803.84
2018-10-11T05:49:20.055Z,99800.50
2018-10-11T05:51:51.049Z,99806.42
2018-10-11T05:54:21.881Z,99793.50
2018-10-11T05:56:52.495Z,99807.78
2018-10-11T05:59:22.792Z,99804.52
2018-10-11T06:01:53.560Z,99811.27
2018-10-11T06:04:24.059Z,99815.58
2018-10-11T06:06:54.703Z,99814.02
2018-10-11T06:09:25.497Z,99814.22
2018-10-11T06:11:56.698Z,99813.48
2018-10-11T06:14:27.642Z,99814.16
2018-10-11T06:16:58.208Z,99816.51
2018-10-11T06:19:28.784Z,99812.45
2018-10-11T06:21:59.569Z,99806.03
2018-10-11T06:24:29.954Z,99808.20
2018-10-11T06:27:00.485Z,99497.13
2018-10-11T06:29:31.157Z,99809.02
2018-10-11T06:32:02.020Z,99808.14
2018-10-11T06:34:32.296Z,99808.64
2018-10-11T06:37:03.838Z,99779.77
2018-10-11T06:39:34.391Z,99803.98
2018-10-11T06:42:04.967Z,99813.35
2018-10-11T06:44:35.432Z,99811.95
2018-10-11T06:47:06.842Z,99805.03
2018-10-11T06:49:37.405Z,99806.71
2018-10-11T06:52:07.984Z,99803.25
2018-10-11T06:54:38.706Z,99804.01
2018-10-11T06:57:09.290Z,99804.06
2018-10-11T06:59:40.153Z,99811.38
2018-10-11T07:02:10.672Z,99818.39
2018-10-11T07:04:41.222Z,99820.61
2018-10-11T07:07:12.053Z,99824.84
2018-10-11T07:09:42.877Z,99820.47
2018-10-11T07:12:13.462Z,99822.77
2018-10-11T07:14:44.036Z,99827.16
2018-10-11T07:17:15.003Z,99827.88
2018-10-11T07:19:45.874Z,99835.98
2018-10-11T07:22:16.399Z,99834.64
2018-10-11T07:24:46.951Z,99835.73
2018-10-11T07:27:17.509Z,99840.80
2018-10-11T07:29:48.349Z,99842.41
2018-10-11T07:32:19.181Z,99847.01
2018-10-11T07:34:50.163Z,99848.91
2018-10-11T07:37:20.757Z,99850.73
2018-10-11T07:39:51.052Z,99848.74
2018-10-11T07:42:21.573Z,99844.35
2018-10-11T07:44:51.971Z,99842.16
2018-10-11T07:47:22.528Z,99845.39
2018-10-11T07:49:53.078Z,99838.83
2018-10-11T07:52:23.718Z,99840.86
2018-10-11T07:54:53.981Z,99843.76
2018-10-11T07:57:25.393Z,99843.42
2018-10-11T07:59:55.615Z,99845.16
2018-10-11T08:02:26.124Z,99844.36
2018-10-11T08:04:56.369Z,99846.38
2018-10-11T08:07:26.697Z,99846.09
2018-10-11T08:09:57.420Z,99845.80
2018-10-11T08:12:27.966Z,99846.38
2018-10-11T08:14:58.517Z,99849.11
2018-10-11T08:17:29.446Z,99844.34
2018-10-11T08:19:59.672Z,99850.44
2018-10-11T08:22:30.424Z,99845.95
2018-10-11T08:25:00.848Z,99845.70
2018-10-11T08:27:31.216Z,99849.19
2018-10-11T08:30:01.843Z,99851.70
2018-10-11T08:32:33.110Z,99845.61
2018-10-11T08:35:03.748Z,99847.65
2018-10-11T08:37:34.512Z,99843.44
2018-10-11T08:40:05.816Z,99844.19
2018-10-11T08:42:36.027Z,99839.67
2018-10-11T08:45:07.412Z,99824.54
2018-10-11T08:47:38.260Z,99835.45
2018-10-11T08:50:08.790Z,99828.16
2018-10-11T08:52:39.510Z,99822.17
2018-10-11T08:55:10.033Z,99820.99
2018-10-11T08:57:40.324Z,99822.08
2018-10-11T09:00:11.036Z,99825.35
2018-10-11T09:02:42.216Z,99818.11
2018-10-11T09:05:15.383Z,99809.48
2018-10-11T09:07:46.049Z,99809.84
2018-10-11T09:10:16.322Z,99811.13
2018-10-11T09:12:46.859Z,99810.03
2018-10-11T09:15:17.752Z,99816.00
2018-10-11T09:17:48.603Z,99812.55
2018-10-11T09:20:19.336Z,99813.67
2018-10-11T09:22:49.918Z,99810.55
2018-10-11T09:25:24.106Z,99811.74
2018-10-11T09:27:54.644Z,99806.64
2018-10-11T09:30:25.581Z,99801.47
2018-10-11T09:32:56.329Z,99807.70
2018-10-11T09:35:27.118Z,99799.64
2018-10-11T09:37:57.650Z,99796.22
2018-10-11T09:40:28.767Z,99794.92
2018-10-11T09:42:59.342Z,99797.15
2018-10-11T09:45:31.681Z,99798.66
2018-10-11T09:48:02.242Z,99791.27
2018-10-11T09:50:32.503Z,99797.16
2018-10-11T09:53:03.625Z,99792.69
2018-10-11T09:55:34.299Z,99781.70
2018-10-11T09:58:04.957Z,99785.61
2018-10-11T10:00:40.998Z,99785.15
2018-10-11T10:03:12.171Z,99782.77
2018-10-11T10:05:42.684Z,99778.02
2018-10-11T10:08:13.446Z,99778.27
2018-10-11T10:10:43.756Z,99769.17
2018-10-11T10:13:16.871Z,99766.50
2018-10-11T10:15:47.282Z,99772.55
2018-10-11T10:18:17.841Z,99777.00
2018-10-11T10:20:50.106Z,99759.14
2018-10-11T10:23:20.686Z,99764.50
2018-10-11T10:25:51.559Z,99766.45
2018-10-11T10:28:22.069Z,99752.48
2018-10-11T10:30:54.903Z,99516.59
2018-10-11T10:33:26.149Z,99751.24
2018-10-11T10:35:56.932Z,99750.81
2018-10-11T10:38:28.145Z,99739.48
2018-10-11T10:40:58.801Z,99741.42
2018-10-11T10:43:29.590Z,99735.91
2018-10-11T10:46:00.114Z,99727.86
2018-10-11T10:48:30.363Z,99729.70
2018-10-11T10:51:01.227Z,99723.81
2018-10-11T10:53:31.770Z,99716.86
2018-10-11T10:56:02.305Z,99726.95
2018-10-11T10:58:32.629Z,99721.63
2018-10-11T11:01:03.141Z,99723.97
2018-10-11T11:03:33.797Z,99717.02
2018-10-11T11:06:04.323Z,99717.78
2018-10-11T11:08:35.113Z,99716.09
2018-10-11T11:11:06.113Z,99715.25
2018-10-11T11:13:36.997Z,99708.53
2018-10-11T11:16:08.533Z,99702.87
2018-10-11T11:18:40.193Z,99707.00
2018-10-11T11:21:11.822Z,99704.78
2018-10-11T11:23:42.460Z,99702.08
2018-10-11T11:26:12.995Z,99697.04
2018-10-11T11:28:43.577Z,99692.88
2018-10-11T11:31:15.125Z,99692.12
2018-10-11T11:33:46.513Z,99688.72
2018-10-11T11:36:17.401Z,99690.41
2018-10-11T11:38:47.704Z,99689.17
2018-10-11T11:41:18.537Z,99682.34
2018-10-11T11:43:49.113Z,99685.16
2018-10-11T11:46:19.832Z,99671.69
2018-10-11T11:48:50.533Z,99674.09
2018-10-11T11:51:21.094Z,99673.41
2018-10-11T11:53:51.755Z,99669.69
2018-10-11T11:56:22.331Z,99665.24
2018-10-11T11:58:53.131Z,99661.41
2018-10-11T12:01:23.487Z,99659.19
2018-10-11T12:03:54.017Z,99656.80
2018-10-11T12:06:25.266Z,99658.03
2018-10-11T12:08:55.902Z,99655.04
2018-10-11T12:11:26.478Z,99656.20
2018-10-11T12:13:57.168Z,99663.54
2018-10-11T12:16:27.536Z,99659.01
2018-10-11T12:19:02.246Z,99654.50
2018-10-11T12:21:33.405Z,99667.44
2018-10-11T12:24:03.748Z,99662.84
2018-10-11T12:26:34.501Z,99661.08
2018-10-11T12:29:05.362Z,99660.70
2018-10-11T12:31:36.120Z,99662.22
2018-10-11T12:34:07.009Z,99655.48
2018-10-11T12:36:37.853Z,99652.18
2018-10-11T12:39:09.856Z,99649.67
2018-10-11T12:41:40.439Z,99647.23
2018-10-11T12:44:10.985Z,99645.20
2018-10-11T12:46:41.989Z,99646.27
2018-10-11T12:49:15.129Z,99640.52
2018-10-11T12:51:45.650Z,99632.64
2018-10-11T12:54:16.499Z,99640.56
2018-10-11T12:56:47.224Z,99636.55
2018-10-11T12:59:17.717Z,99633.27
2018-10-11T13:01:48.315Z,99635.57
2018-10-11T13:04:18.824Z,99628.81
2018-10-11T13:06:49.396Z,99625.89
2018-10-11T13:09:19.750Z,99620.84
2018-10-11T13:11:50.487Z,99630.88
2018-10-11T13:14:21.321Z,99616.19
2018-10-11T13:16:51.784Z,99624.73
2018-10-11T13:19:22.361Z,99614.85
2018-10-11T13:21:52.892Z,99622.17
2018-10-11T13:24:23.716Z,99621.40
2018-10-11T13:26:54.514Z,99614.47
2018-10-11T13:29:25.001Z,99612.59
2018-10-11T13:31:55.579Z,99613.23
2018-10-11T13:34:26.159Z,99622.52
2018-10-11T13:36:56.683Z,99616.71
2018-10-11T13:39:27.714Z,99614.88
2018-10-11T13:41:58.309Z,99610.73
2018-10-11T13:44:29.043Z,99618.81
2018-10-11T13:46:59.596Z,99617.22
2018-10-11T13:49:30.009Z,99618.21
2018-10-11T13:52:00.636Z,99616.78
2018-10-11T13:54:30.859Z,99616.26
2018-10-11T13:57:02.894Z,99609.92
2018-10-11T13:59:32.429Z,99599.40
2018-10-11T14:02:02.936Z,99608.61
2018-10-11T14:04:33.335Z,99610.36
2018-10-11T14:07:04.053Z,99612.08
2018-10-11T14:09:34.645Z,99605.86
2018-10-11T14:12:05.217Z,99598.58
2018-10-11T14:14:35.903Z,99601.41
2018-10-11T14:17:06.159Z,99595.55
2018-10-11T14:19:36.675Z,99599.70
2018-10-11T14:22:07.307Z,99598.70
2018-10-11T14:24:37.565Z,99613.75
2018-10-11T14:27:08.260Z,99602.36
2018-10-11T14:29:39.101Z,99600.39
2018-10-11T14:32:09.507Z,99593.20
2018-10-11T14:34:40.152Z,99606.94
2018-10-11T14:37:11.885Z,99603.52
2018-10-11T14:39:42.405Z,99602.66
2018-10-11T14:42:12.861Z,99602.84
2018-10-11T14:44:43.593Z,99605.53
2018-10-11T14:47:14.569Z,99596.38
2018-10-11T14:49:46.479Z,99598.01
2018-10-11T14:52:17.230Z,99599.67
2018-10-11T14:54:47.778Z,99600.77
2018-10-11T14:57:18.358Z,99610.33
2018-10-11T14:59:48.811Z,99597.52
2018-10-11T15:02:19.681Z,99589.28
2018-10-11T15:04:50.099Z,99595.55
2018-10-11T15:07:21.001Z,99597.35
2018-10-11T15:09:51.531Z,99597.00
2018-10-11T15:12:21.974Z,99598.82
2018-10-11T15:14:52.773Z,99599.17
2018-10-11T15:17:23.427Z,99605.05
2018-10-11T15:19:54.288Z,99601.73
2018-10-11T15:22:24.972Z,99600.46
2018-10-11T15:24:55.574Z,99603.56
2018-10-11T15:27:25.831Z,99595.44
2018-10-11T15:29:56.554Z,99605.48
2018-10-11T15:32:27.278Z,99602.37
2018-10-11T15:34:58.132Z,99608.20
2018-10-11T15:37:28.910Z,99611.93
2018-10-11T15:39:59.620Z,99608.28
2018-10-11T15:42:30.200Z,99615.39
2018-10-11T15:45:01.357Z,99613.97
2018-10-11T15:47:31.920Z,99622.50
2018-10-11T15:50:02.479Z,99621.11
2018-10-11T15:52:33.163Z,99621.06
2018-10-11T15:55:03.879Z,99624.05
2018-10-11T15:57:34.452Z,99622.30
2018-10-11T16:00:05.775Z,99621.33
2018-10-11T16:02:36.436Z,99572.92
2018-10-11T16:05:06.745Z,99625.38
2018-10-11T16:07:37.581Z,99624.45
2018-10-11T16:10:08.292Z,99633.08
2018-10-11T16:12:39.214Z,99635.86
2018-10-11T16:15:09.725Z,99635.30
2018-10-11T16:17:39.971Z,99634.61
2018-10-11T16:20:10.474Z,99635.77
2018-10-11T16:22:41.048Z,99639.56
2018-10-11T16:25:11.739Z,99638.74
2018-10-11T16:27:42.293Z,99643.22
2018-10-11T16:30:12.537Z,99638.93
2018-10-11T16:32:43.137Z,99639.38
2018-10-11T16:35:13.684Z,99644.27
2018-10-11T16:37:44.217Z,99645.16
2018-10-11T16:40:14.746Z,99643.34
2018-10-11T16:42:45.287Z,99651.78
2018-10-11T16:45:16.277Z,99645.15
2018-10-11T16:47:46.848Z,99648.05
2018-10-11T16:50:17.423Z,99653.66
2018-10-11T16:52:48.820Z,99648.06
2018-10-11T16:55:19.241Z,99654.59
2018-10-11T16:57:49.847Z,99647.19
2018-10-11T17:00:20.315Z,99657.20
2018-10-11T17:02:50.858Z,99655.01
2018-10-11T17:05:21.212Z,99650.45
2018-10-11T17:07:52.057Z,99657.66
2018-10-11T17:10:22.821Z,99665.27
2018-10-11T17:12:53.758Z,99665.28
2018-10-11T17:15:24.549Z,99667.97
2018-10-11T17:17:54.798Z,99666.24
2018-10-11T17:20:25.424Z,99666.36
2018-10-11T17:22:56.063Z,99661.00
2018-10-11T17:25:26.638Z,99668.95
2018-10-11T17:27:57.476Z,99669.80
2018-10-11T17:30:28.341Z,99674.05
2018-10-11T17:32:59.134Z,99672.78
2018-10-11T17:35:32.646Z,99672.86
2018-10-11T17:38:03.206Z,99672.72
2018-10-11T17:40:33.749Z,99670.77
2018-10-11T17:43:04.309Z,99670.34
2018-10-11T17:45:34.844Z,99669.76
2018-10-11T17:48:05.436Z,99667.20
2018-10-11T17:50:36.602Z,99670.84
2018-10-11T17:53:07.245Z,99673.76
2018-10-11T17:55:37.552Z,99662.39
2018-10-11T17:58:07.978Z,99671.31
2018-10-11T18:00:38.967Z,99686.38
2018-10-11T18:03:09.620Z,99679.63
2018-10-11T18:05:40.764Z,99686.26
2018-10-11T18:08:11.331Z,99689.09
2018-10-11T18:10:42.237Z,99690.38
2018-10-11T18:13:12.835Z,99685.34
2018-10-11T18:15:43.425Z,99693.75
2018-10-11T18:18:14.464Z,99689.63
2018-10-11T18:20:45.725Z,99690.38
2018-10-11T18:23:16.037Z,99469.64
2018-10-11T18:25:46.672Z,99697.84
2018-10-11T18:28:17.301Z,99700.41
2018-10-11T18:30:47.968Z,99696.67
2018-10-11T18:33:18.989Z,99698.91
2018-10-11T18:35:49.357Z,99705.92
2018-10-11T18:38:19.805Z,99711.84
2018-10-11T18:40:50.191Z,99711.41
2018-10-11T18:43:20.868Z,99709.58
2018-10-11T18:45:51.534Z,99716.59
2018-10-11T18:48:22.133Z,99722.01
2018-10-11T18:50:52.892Z,99724.41
2018-10-11T18:53:23.619Z,99721.25
2018-10-11T18:55:54.299Z,99731.05
2018-10-11T18:58:24.813Z,99732.59
2018-10-11T19:00:55.379Z,99721.59
2018-10-11T19:03:26.065Z,99728.90
2018-10-11T19:05:56.593Z,99733.86
2018-10-11T19:08:27.489Z,99728.80
2018-10-11T19:10:58.348Z,99736.59
2018-10-11T19:13:29.255Z,99743.41
2018-10-11T19:16:00.154Z,99744.73
2018-10-11T19:18:30.977Z,99712.60
2018-10-11T19:21:01.288Z,99745.79
2018-10-11T19:23:31.797Z,99747.60
2018-10-11T19:26:02.117Z,99742.92
2018-10-11T19:28:32.676Z,99732.17
2018-10-11T19:31:03.058Z,99735.66
2018-10-11T19:33:33.792Z,99735.67
2018-10-11T19:36:04.592Z,99739.12
2018-10-11T19:38:35.168Z,99740.32
2018-10-11T19:41:05.808Z,99743.23
2018-10-11T19:43:36.522Z,99737.13
2018-10-11T19:46:07.344Z,99737.16
2018-10-11T19:48:37.692Z,99741.27
2018-10-11T19:51:08.565Z,99745.84
2018-10-11T19:53:39.139Z,99748.41
2018-10-11T19:56:09.780Z,99748.70
2018-10-11T19:58:40.747Z,99753.15
2018-10-11T20:01:11.964Z,99746.83
2018-10-11T20:03:42.581Z,99750.34
2018-10-11T20:06:13.140Z,99753.56
2018-10-11T20:08:43.857Z,99752.11
2018-10-11T20:11:14.571Z,99764.44
2018-10-11T20:13:44.831Z,99754.20
2018-10-11T20:16:15.048Z,99760.93
2018-10-11T20:18:45.581Z,99757.31
2018-10-11T20:21:16.091Z,99763.81
2018-10-11T20:23:46.810Z,99763.67
2018-10-11T20:26:17.050Z,99759.02
2018-10-11T20:28:47.301Z,99759.75
2018-10-11T20:31:18.098Z,99763.81
2018-10-11T20:33:48.938Z,99769.56
2018-10-11T20:36:19.627Z,99761.70
2018-10-11T20:38:50.312Z,99774.88
2018-10-11T20:41:20.641Z,99765.47
2018-10-11T20:43:51.325Z,99637.06
2018-10-11T20:46:22.054Z,99763.33
2018-10-11T20:48:53.505Z,99766.00
2018-10-11T20:51:24.100Z,99759.80
2018-10-11T20:53:54.532Z,99770.14
2018-10-11T20:56:25.264Z,99767.89
2018-10-11T20:58:56.226Z,99763.58
2018-10-11T21:01:26.770Z,99771.82
2018-10-11T21:03:57.318Z,99780.02
2018-10-11T21:06:28.539Z,99773.80
2018-10-11T21:08:58.806Z,99774.31
2018-10-11T21:11:30.357Z,99765.27
2018-10-11T21:14:00.989Z,99769.92
2018-10-11T21:16:31.613Z,99770.47
2018-10-11T21:19:02.016Z,99781.22
2018-10-11T21:21:33.181Z,99777.22
2018-10-11T21:24:04.118Z,99777.36
2018-10-11T21:26:34.636Z,99776.77
2018-10-11T21:29:05.212Z,99783.09
2018-10-11T21:31:35.761Z,99777.31
2018-10-11T21:34:06.451Z,99772.13
2018-10-11T21:36:37.166Z,99774.83
2018-10-11T21:39:10.204Z,99768.09
2018-10-11T21:41:41.278Z,99763.30
2018-10-11T21:44:12.859Z,99765.55
2018-10-11T21:46:43.450Z,99761.22
2018-10-11T21:49:13.876Z,99758.27
2018-10-11T21:51:44.573Z,99761.09
2018-10-11T21:54:15.160Z,99766.98
2018-10-11T21:56:45.691Z,99755.58
2018-10-11T21:59:16.009Z,99760.97
2018-10-11T22:01:46.506Z,99767.67
2018-10-11T22:04:16.739Z,99766.44
2018-10-11T22:06:47.005Z,99760.98
2018-10-11T22:09:17.692Z,99760.97
2018-10-11T22:11:48.204Z,99760.69
2018-10-11T22:14:18.758Z,99750.26
2018-10-11T22:16:49.279Z,99760.50
2018-10-11T22:19:19.841Z,99754.45
2018-10-11T22:21:50.385Z,99753.47
2018-10-11T22:24:20.632Z,99755.97
2018-10-11T22:26:51.429Z,99762.43
2018-10-11T22:29:21.869Z,99757.09
2018-10-11T22:31:52.136Z,99756.85
2018-10-11T22:34:22.689Z,99762.22
2018-10-11T22:36:53.034Z,99762.48
2018-10-11T22:39:23.977Z,99758.38
2018-10-11T22:41:54.508Z,99756.63
2018-10-11T22:44:25.114Z,99752.42
2018-10-11T22:46:55.649Z,99754.99
2018-10-11T22:49:26.217Z,99745.70
2018-10-11T22:51:56.828Z,99749.14
2018-10-11T22:54:27.662Z,99751.59
2018-10-11T22:56:58.353Z,99745.05
2018-10-11T22:59:28.936Z,99754.86
2018-10-11T23:01:59.723Z,99756.13
2018-10-11T23:04:30.232Z,99755.14
2018-10-11T23:07:01.012Z,99755.36
2018-10-11T23:09:31.508Z,99752.25
2018-10-11T23:12:02.021Z,99762.45
2018-10-11T23:14:32.872Z,99753.19
2018-10-11T23:17:03.944Z,99759.05
2018-10-11T23:19:34.456Z,99754.27
2018-10-11T23:22:05.000Z,99754.27
2018-10-11T23:24:35.492Z,99757.52
2018-10-11T23:27:06.121Z,99747.19
2018-10-11T23:29:36.714Z,99748.80
2018-10-11T23:32:07.328Z,99750.14
2018-10-11T23:34:38.055Z,99746.44
2018-10-11T23:37:09.157Z,99747.27
2018-10-11T23:39:39.690Z,99743.41
2018-10-11T23:42:10.013Z,99746.21
2018-10-11T23:44:40.653Z,99743.56
2018-10-11T23:47:11.977Z,99749.95
2018-10-11T23:49:42.270Z,99738.42
2018-10-11T23:52:12.785Z,99736.36
2018-10-11T23:54:43.514Z,99741.67
2018-10-11T23:57:14.028Z,99732.35
2018-10-11T23:59:44.620Z,99741.16
